European Seaway — MPDG3 — position and weather

sailwx.info

Track history (hours):
 
Tides and Currents Weather Stations Pressure Air Temp Water Temp Dewpoint Dewpoint Depression Visibility Wind Speed Wind Dir Waves Ship Positions

European Seaway

Operator: P & O Ferries

Last reported at 2017-Nov-23 19:01 UTC. Time now 2017-Nov-23 22:30 UTC.
Position N 51°06' E 001°23'.

Length 179 m; draft 6.1 m.

Type: Passenger vessel. MMSI: 232001040.

Date/timePositionNaut miles runAvg speedWind from/ knotsBaromVisibWave heightAir tempDewpointWater temp
2017-Nov-23 19:01N 51°06' E 001°23'3 5.1
2017-Nov-23 18:30N 51°07' E 001°20'0 0.0
2017-Nov-23 18:00N 51°07' E 001°20'5 9.5
2017-Nov-23 17:30N 51°06' E 001°27'816.1
2017-Nov-23 17:01N 51°02' E 001°38'715.0
2017-Nov-23 16:30N 50°58' E 001°49'2 3.1
2017-Nov-23 16:00N 50°58' E 001°51'0 0.0
2017-Nov-23 15:30N 50°58' E 001°51'4 8.8
2017-Nov-23 15:01N 50°58' E 001°44'1019.2
2017-Nov-23 14:30N 51°02' E 001°31'816.5
2017-Nov-23 14:00N 51°07' E 001°20'0 0.0
2017-Nov-23 13:30N 51°07' E 001°20'0 0.0
2017-Nov-23 13:00N 51°07' E 001°20'3 5.3
2017-Nov-23 12:30N 51°07' E 001°24'714.0
2017-Nov-23 12:01N 51°03' E 001°34'815.5
2017-Nov-23 11:30N 50°59' E 001°44'5 9.3
2017-Nov-23 11:00N 50°58' E 001°51'0 0.0
2017-Nov-23 10:30N 50°58' E 001°51'0 0.5
2017-Nov-23 10:00N 50°58' E 001°51'0 0.6
2017-Nov-23 09:30N 50°58' E 001°52'0 0.0
2017-Nov-23 09:00N 50°58' E 001°52'0 0.0
2017-Nov-23 08:30N 50°58' E 001°52'0 0.0
2017-Nov-23 08:00N 50°58' E 001°52'0 0.0
2017-Nov-23 07:30N 50°58' E 001°52'0 0.0
2017-Nov-23 07:00N 50°58' E 001°52'0 0.0
2017-Nov-23 06:29N 50°58' E 001°52'0 0.0
2017-Nov-23 06:00N 50°58' E 001°52'0 0.0
2017-Nov-23 05:31N 50°58' E 001°52'0 0.0
2017-Nov-23 05:00N 50°58' E 001°52'0 0.0
2017-Nov-23 04:30N 50°58' E 001°52'0 0.0
2017-Nov-23 04:00N 50°58' E 001°52'0 0.0
2017-Nov-23 03:30N 50°58' E 001°52'0 0.0
2017-Nov-23 03:01N 50°58' E 001°52'0 0.0
2017-Nov-23 02:30N 50°58' E 001°52'0 0.0
2017-Nov-23 02:01N 50°58' E 001°52'0 0.0
2017-Nov-23 01:31N 50°58' E 001°52'0 0.0
2017-Nov-23 01:01N 50°58' E 001°52'0 0.0
2017-Nov-23 00:31N 50°58' E 001°52'0 0.0
2017-Nov-23 00:00N 50°58' E 001°52'0 0.0
2017-Nov-22 23:31N 50°58' E 001°52'0 0.0
2017-Nov-22 23:00N 50°58' E 001°52'0 0.0
2017-Nov-22 22:30N 50°58' E 001°52'0 0.0
2017-Nov-22 22:01N 50°58' E 001°52'0 0.0
2017-Nov-22 21:31N 50°58' E 001°52'0 0.0
2017-Nov-22 21:00N 50°58' E 001°52'0 0.0
2017-Nov-22 20:31N 50°58' E 001°52'0 0.4
2017-Nov-22 20:00N 50°58' E 001°52'1 1.5
2017-Nov-22 19:31N 50°58' E 001°51'  
2017-Nov-20 00:30N 50°58' E 001°51'0 0.0
2017-Nov-20 00:00N 50°58' E 001°51'0 0.0
2017-Nov-19 23:30N 50°58' E 001°51'0 0.0
2017-Nov-19 23:00N 50°58' E 001°51'0 0.0
2017-Nov-19 22:30N 50°58' E 001°51'0 0.0
2017-Nov-19 22:00N 50°58' E 001°51'0 0.0
2017-Nov-19 21:30N 50°58' E 001°51'0 0.0
2017-Nov-19 21:00N 50°58' E 001°51'0 0.0
2017-Nov-19 20:30N 50°58' E 001°51'0 0.0
2017-Nov-19 20:00N 50°58' E 001°51'0 0.2
2017-Nov-19 19:30N 50°58' E 001°51'713.5
2017-Nov-19 19:01N 50°58' E 001°40'917.3
2017-Nov-19 18:31N 51°03' E 001°29'713.1
2017-Nov-19 17:59N 51°07' E 001°20'0 0.0
2017-Nov-19 17:15N 51°07' E 001°20'1 5.5
2017-Nov-19 17:00N 51°07' E 001°22'816.1
2017-Nov-19 16:30N 51°03' E 001°33'917.7
2017-Nov-19 16:00N 50°58' E 001°45'4 8.5
2017-Nov-19 15:31N 50°58' E 001°52'0 0.0
2017-Nov-19 15:01N 50°58' E 001°52'0 0.4
2017-Nov-19 14:30N 50°58' E 001°52'0 0.0
2017-Nov-19 12:46N 50°58' E 001°52'0 0.0
2017-Nov-19 12:30N 50°58' E 001°52'0 0.0
2017-Nov-19 12:00N 50°58' E 001°52'0 0.0
2017-Nov-19 11:30N 50°58' E 001°52'0 0.0
2017-Nov-19 11:00N 50°58' E 001°52'0 0.0
2017-Nov-19 10:31N 50°58' E 001°52'0 0.0
2017-Nov-19 10:00N 50°58' E 001°52'0 0.0
2017-Nov-19 09:30N 50°58' E 001°52'0 0.0
2017-Nov-19 09:00N 50°58' E 001°52'0 0.0
2017-Nov-19 08:30N 50°58' E 001°52'0 0.0
2017-Nov-19 08:00N 50°58' E 001°52'0 0.0
2017-Nov-19 07:30N 50°58' E 001°52'0 0.0
2017-Nov-19 07:00N 50°58' E 001°52'0 0.0
2017-Nov-19 06:31N 50°58' E 001°52'0 0.0
2017-Nov-19 06:00N 50°58' E 001°52'0 0.0
2017-Nov-19 05:30N 50°58' E 001°52'0 0.0
2017-Nov-19 05:00N 50°58' E 001°52'0 0.0
2017-Nov-19 04:31N 50°58' E 001°52'0 0.0
2017-Nov-19 04:00N 50°58' E 001°52'0 0.0
2017-Nov-19 03:31N 50°58' E 001°52'0 0.0
2017-Nov-19 03:00N 50°58' E 001°52'0 0.0
2017-Nov-19 00:34N 50°58' E 001°52'0 0.0
2017-Nov-19 00:30N 50°58' E 001°52'0 0.0
2017-Nov-19 00:00N 50°58' E 001°52'0 0.0
2017-Nov-18 23:30N 50°58' E 001°52'0 0.0
2017-Nov-18 23:00N 50°58' E 001°52'0 0.0
2017-Nov-18 22:30N 50°58' E 001°52'0 0.0
2017-Nov-18 22:00N 50°58' E 001°52'0 0.0
2017-Nov-18 21:30N 50°58' E 001°52'0 0.0
2017-Nov-18 21:00N 50°58' E 001°52'0 0.0
2017-Nov-18 20:30N 50°58' E 001°52'0 0.0
2017-Nov-18 20:00N 50°58' E 001°52'0 0.0
2017-Nov-18 19:30N 50°58' E 001°52'3 5.6
2017-Nov-18 19:01N 50°58' E 001°47'815.1
2017-Nov-18 18:30N 50°60' E 001°36'817.0
2017-Nov-18 18:01N 51°05' E 001°25'4 5.0
2017-Nov-18 17:12N 51°07' E 001°20'1 4.1
2017-Nov-18 17:00N 51°07' E 001°21'917.4
2017-Nov-18 16:30N 51°04' E 001°34'917.0
2017-Nov-18 16:00N 50°58' E 001°44'4 8.2
2017-Nov-18 15:30N 50°58' E 001°51'0 0.0
2017-Nov-18 15:00N 50°58' E 001°51'0 0.0
2017-Nov-18 14:30N 50°58' E 001°51'713.9
2017-Nov-18 14:00N 50°59' E 001°40'918.3
2017-Nov-18 13:30N 51°04' E 001°28'6 4.5
2017-Nov-18 12:12N 51°07' E 001°20'0 0.8
2017-Nov-18 12:00N 51°07' E 001°20'714.5
2017-Nov-18 11:30N 51°05' E 001°31'816.9
2017-Nov-18 11:00N 50°60' E 001°42'612.6
2017-Nov-18 10:30N 50°58' E 001°52'0 0.2
2017-Nov-18 10:00N 50°58' E 001°52'0 0.0
2017-Nov-18 09:31N 50°58' E 001°52'0 0.0
2017-Nov-18 09:00N 50°58' E 001°52'0 0.0
2017-Nov-18 08:30N 50°58' E 001°52'0 0.0
2017-Nov-18 08:00N 50°58' E 001°52'0 0.0
2017-Nov-18 07:30N 50°58' E 001°52'0 0.0
2017-Nov-18 07:00N 50°58' E 001°52'0 0.0
2017-Nov-18 06:30N 50°58' E 001°52'0 0.0
2017-Nov-18 06:00N 50°58' E 001°52'0 0.0
2017-Nov-18 05:30N 50°58' E 001°52'0 0.0
2017-Nov-18 05:00N 50°58' E 001°52'0 0.0
2017-Nov-18 04:30N 50°58' E 001°52'0 0.0
2017-Nov-18 04:00N 50°58' E 001°52'0 0.0
2017-Nov-18 03:30N 50°58' E 001°52'0 0.0
2017-Nov-18 03:00N 50°58' E 001°52'0 0.0
2017-Nov-18 02:30N 50°58' E 001°52'0 0.0
2017-Nov-18 02:00N 50°58' E 001°52'0 0.0
2017-Nov-18 01:30N 50°58' E 001°52'0 0.0
2017-Nov-18 01:00N 50°58' E 001°52'0 0.0
2017-Nov-18 00:30N 50°58' E 001°52'0 0.0
2017-Nov-18 00:00N 50°58' E 001°52'0 0.0
2017-Nov-17 23:30N 50°58' E 001°52'0 0.0
2017-Nov-17 23:00N 50°58' E 001°52'0 0.0
2017-Nov-17 22:30N 50°58' E 001°52'0 0.0
2017-Nov-17 22:00N 50°58' E 001°52'0 0.0
2017-Nov-17 21:30N 50°58' E 001°52'0 0.0
2017-Nov-17 21:00N 50°58' E 001°52'0 0.0
2017-Nov-17 20:30N 50°58' E 001°52'0 0.0
2017-Nov-17 20:00N 50°58' E 001°52'5 9.7
2017-Nov-17 19:30N 50°58' E 001°44'816.8
2017-Nov-17 19:00N 51°01' E 001°32'917.8
2017-Nov-17 18:30N 51°07' E 001°21'1 1.1
2017-Nov-17 17:38N 51°07' E 001°20'0 0.0
2017-Nov-17 17:16N 51°07' E 001°20'1 4.9
2017-Nov-17 17:00N 51°07' E 001°22'714.3
2017-Nov-17 16:31N 51°04' E 001°32'816.1
2017-Nov-17 16:01N 50°59' E 001°43'510.7
2017-Nov-17 15:30N 50°58' E 001°51'0 0.0
2017-Nov-17 15:00N 50°58' E 001°51'0 0.9
2017-Nov-17 14:30N 50°58' E 001°50'713.9
2017-Nov-17 14:00N 50°59' E 001°39'816.3
2017-Nov-17 13:30N 51°03' E 001°29'7 8.4
2017-Nov-17 12:42N 51°07' E 001°20'0 0.0
2017-Nov-17 12:27N 51°07' E 001°20'0 0.3
2017-Nov-17 12:00N 51°07' E 001°20'714.8
2017-Nov-17 11:30N 51°05' E 001°31'816.8
2017-Nov-17 11:00N 50°60' E 001°41'713.2
2017-Nov-17 10:30N 50°58' E 001°52'0 0.2
2017-Nov-17 10:00N 50°58' E 001°52'0 0.0
2017-Nov-17 09:30N 50°58' E 001°52'0 0.4
2017-Nov-17 09:00N 50°58' E 001°52'0 0.0
2017-Nov-17 08:31N 50°58' E 001°52'0 0.0
2017-Nov-17 08:00N 50°58' E 001°52'0 0.0
2017-Nov-17 07:30N 50°58' E 001°52'0 0.0
2017-Nov-17 07:00N 50°58' E 001°52'0 0.0
2017-Nov-17 06:30N 50°58' E 001°52'0 0.0
2017-Nov-17 06:00N 50°58' E 001°52'0 0.0
2017-Nov-17 05:30N 50°58' E 001°52'0 0.0
2017-Nov-17 05:00N 50°58' E 001°52'0 0.0
2017-Nov-17 04:30N 50°58' E 001°52'0 0.0
2017-Nov-17 04:00N 50°58' E 001°52'0 0.0
2017-Nov-17 03:30N 50°58' E 001°52'0 0.0
2017-Nov-17 03:00N 50°58' E 001°52'0 0.0
2017-Nov-17 02:30N 50°58' E 001°52'0 0.0
2017-Nov-17 02:00N 50°58' E 001°52'0 0.0
2017-Nov-17 01:30N 50°58' E 001°52'0 0.0
2017-Nov-17 01:00N 50°58' E 001°52'0 0.0
2017-Nov-17 00:30N 50°58' E 001°52'0 0.0
2017-Nov-17 00:00N 50°58' E 001°52'0 0.0
2017-Nov-16 23:30N 50°58' E 001°52'0 0.0
2017-Nov-16 23:00N 50°58' E 001°52'0 0.0
2017-Nov-16 22:30N 50°58' E 001°52'0 0.0
2017-Nov-16 22:00N 50°58' E 001°52'0 0.0
2017-Nov-16 21:30N 50°58' E 001°52'0 0.0
2017-Nov-16 21:00N 50°58' E 001°52'0 0.4
2017-Nov-16 20:30N 50°58' E 001°52'0 0.0
2017-Nov-16 20:00N 50°58' E 001°52'4 7.8
2017-Nov-16 19:31N 50°58' E 001°46'714.9
2017-Nov-16 19:01N 50°59' E 001°34'815.9
2017-Nov-16 18:31N 51°05' E 001°25'4 3.5
2017-Nov-16 17:24N 51°07' E 001°20'0 0.0
2017-Nov-16 16:56N 51°07' E 001°20'512.7
2017-Nov-16 16:30N 51°06' E 001°28'917.7
2017-Nov-16 16:01N 51°01' E 001°40'714.6
2017-Nov-16 15:31N 50°58' E 001°51'0 0.3
2017-Nov-16 15:00N 50°58' E 001°51'0 0.0
2017-Nov-16 14:31N 50°58' E 001°51'510.3
2017-Nov-16 14:00N 50°58' E 001°43'918.5
2017-Nov-16 13:31N 51°03' E 001°30'814.7
2017-Nov-16 12:59N 51°07' E 001°20'0 0.1
2017-Nov-16 12:28N 51°07' E 001°20'0 0.0
2017-Nov-16 12:00N 51°07' E 001°20'611.9
2017-Nov-16 11:30N 51°06' E 001°29'917.2
2017-Nov-16 11:00N 51°01' E 001°40'714.4
2017-Nov-16 10:30N 50°58' E 001°51'0 0.8
2017-Nov-16 10:00N 50°58' E 001°52'0 0.0
2017-Nov-16 09:30N 50°58' E 001°52'0 0.0
2017-Nov-16 09:00N 50°58' E 001°52'0 0.0
2017-Nov-16 08:31N 50°58' E 001°52'0 0.0
2017-Nov-16 08:01N 50°58' E 001°52'0 0.0
2017-Nov-16 07:30N 50°58' E 001°52'0 0.0
2017-Nov-16 07:01N 50°58' E 001°52'0 0.0
2017-Nov-16 06:31N 50°58' E 001°52'0 0.0
2017-Nov-16 06:01N 50°58' E 001°52'0 0.0
2017-Nov-16 05:31N 50°58' E 001°52'0 0.0
2017-Nov-16 05:00N 50°58' E 001°52'0 0.0
2017-Nov-16 04:30N 50°58' E 001°52'0 0.0
2017-Nov-16 04:00N 50°58' E 001°52'0 0.0
2017-Nov-16 03:31N 50°58' E 001°52'0 0.0
2017-Nov-16 03:00N 50°58' E 001°52'0 0.0
2017-Nov-16 02:31N 50°58' E 001°52'0 0.0
2017-Nov-16 02:00N 50°58' E 001°52'0 0.0
2017-Nov-16 01:30N 50°58' E 001°52'0 0.0
2017-Nov-16 01:00N 50°58' E 001°52'0 0.0
2017-Nov-16 00:30N 50°58' E 001°52'0 0.0
2017-Nov-16 00:00N 50°58' E 001°52'0 0.0
2017-Nov-15 23:30N 50°58' E 001°52'0 0.0
2017-Nov-15 23:00N 50°58' E 001°52'0 0.0
2017-Nov-15 22:31N 50°58' E 001°52'0 0.0
2017-Nov-15 22:00N 50°58' E 001°52'0 0.0
2017-Nov-15 21:30N 50°58' E 001°52'0 0.0
2017-Nov-15 21:00N 50°58' E 001°52'0 0.0
2017-Nov-15 20:30N 50°58' E 001°52'0 0.0
2017-Nov-15 20:00N 50°58' E 001°52'0 0.2
2017-Nov-15 19:30N 50°58' E 001°52'714.5
2017-Nov-15 19:00N 50°58' E 001°40'917.4
2017-Nov-15 18:30N 51°02' E 001°28'7 4.8
2017-Nov-15 17:02N 51°07' E 001°20'0 0.1
2017-Nov-15 16:50N 51°07' E 001°20'2 7.0
2017-Nov-15 16:30N 51°07' E 001°24'917.7
2017-Nov-15 16:00N 51°02' E 001°35'918.0
2017-Nov-15 15:30N 50°58' E 001°48'2 3.3
2017-Nov-15 15:00N 50°58' E 001°51'0 0.0
2017-Nov-15 14:30N 50°58' E 001°51'510.1
2017-Nov-15 14:00N 50°58' E 001°43'918.1
2017-Nov-15 13:30N 51°03' E 001°31'8 4.5
2017-Nov-15 11:44N 51°07' E 001°20'312.8
2017-Nov-15 11:31N 51°07' E 001°25'917.1
2017-Nov-15 11:01N 51°02' E 001°36'816.0
2017-Nov-15 10:30N 50°58' E 001°47'3 6.0
2017-Nov-15 10:00N 50°58' E 001°52'0 0.0
2017-Nov-15 09:30N 50°58' E 001°52'0 0.0
2017-Nov-15 09:00N 50°58' E 001°52'0 0.0
2017-Nov-15 08:30N 50°58' E 001°52'0 0.0
2017-Nov-15 08:00N 50°58' E 001°52'0 0.0
2017-Nov-15 07:30N 50°58' E 001°52'0 0.0
2017-Nov-15 07:00N 50°58' E 001°52'0 0.0
2017-Nov-15 06:30N 50°58' E 001°52'0 0.0
2017-Nov-15 06:00N 50°58' E 001°52'0 0.0
2017-Nov-15 05:30N 50°58' E 001°52'0 0.0
2017-Nov-15 05:00N 50°58' E 001°52'0 0.0
2017-Nov-15 04:30N 50°58' E 001°52'0 0.0
2017-Nov-15 04:00N 50°58' E 001°52'0 0.0
2017-Nov-15 03:30N 50°58' E 001°52'0 0.0
2017-Nov-15 03:00N 50°58' E 001°52'0 0.0
2017-Nov-15 02:30N 50°58' E 001°52'0 0.0
2017-Nov-15 02:00N 50°58' E 001°52'0 0.0
2017-Nov-15 01:30N 50°58' E 001°52'0 0.0
2017-Nov-15 01:00N 50°58' E 001°52'0 0.0
2017-Nov-15 00:30N 50°58' E 001°52'0 0.0
2017-Nov-15 00:00N 50°58' E 001°52'0 0.0
2017-Nov-14 23:31N 50°58' E 001°52'0 0.0
2017-Nov-14 23:00N 50°58' E 001°52'0 0.0
2017-Nov-14 22:31N 50°58' E 001°52'0 0.0
2017-Nov-14 22:00N 50°58' E 001°52'0 0.0
2017-Nov-14 21:30N 50°58' E 001°52'0 0.0
2017-Nov-14 21:00N 50°58' E 001°52'0 0.0
2017-Nov-14 20:30N 50°58' E 001°52'0 0.0
2017-Nov-14 20:00N 50°58' E 001°52'4 7.2
2017-Nov-14 19:30N 50°58' E 001°46'918.2
2017-Nov-14 19:00N 51°02' E 001°33'917.8
2017-Nov-14 18:30N 51°07' E 001°21'1 0.7
2017-Nov-14 17:09N 51°07' E 001°20'0 2.7
2017-Nov-14 17:00N 51°07' E 001°21'612.1
2017-Nov-14 16:31N 51°05' E 001°30'713.7
2017-Nov-14 16:00N 51°01' E 001°38'815.2
2017-Nov-14 15:31N 50°58' E 001°49'1 2.1
2017-Nov-14 15:00N 50°58' E 001°51'0 0.0
2017-Nov-14 14:31N 50°58' E 001°51'5 9.7
2017-Nov-14 14:00N 50°58' E 001°43'917.7
2017-Nov-14 13:30N 51°02' E 001°31'816.8
2017-Nov-14 13:00N 51°07' E 001°20'0 0.9
2017-Nov-14 12:28N 51°07' E 001°20'0 0.0
2017-Nov-14 11:51N 51°07' E 001°20'3 9.7
2017-Nov-14 11:30N 51°07' E 001°26'816.7
2017-Nov-14 11:00N 51°03' E 001°37'815.7
2017-Nov-14 10:30N 50°58' E 001°47'3 5.6
2017-Nov-14 10:00N 50°58' E 001°52'0 0.0
2017-Nov-14 09:30N 50°58' E 001°52'0 0.3
2017-Nov-14 09:00N 50°58' E 001°52'0 0.0
2017-Nov-14 08:30N 50°58' E 001°52'0 0.0
2017-Nov-14 08:00N 50°58' E 001°52'0 0.0
2017-Nov-14 07:30N 50°58' E 001°52'0 0.0
2017-Nov-14 07:00N 50°58' E 001°52'0 0.0
2017-Nov-14 06:30N 50°58' E 001°52'0 0.0
2017-Nov-14 06:00N 50°58' E 001°52'0 0.0
2017-Nov-14 05:30N 50°58' E 001°52'0 0.0
2017-Nov-14 05:00N 50°58' E 001°52'0 0.0
2017-Nov-14 04:30N 50°58' E 001°52'0 0.0
2017-Nov-14 04:00N 50°58' E 001°52'0 0.0
2017-Nov-14 03:30N 50°58' E 001°52'0 0.0
2017-Nov-14 03:00N 50°58' E 001°52'0 0.0
2017-Nov-14 02:30N 50°58' E 001°52'0 0.0
2017-Nov-14 02:00N 50°58' E 001°52'0 0.0
2017-Nov-14 01:30N 50°58' E 001°52'0 0.0
2017-Nov-14 01:00N 50°58' E 001°52'0 0.0
2017-Nov-14 00:30N 50°58' E 001°52'0 0.0
2017-Nov-14 00:00N 50°58' E 001°52'0 0.0
2017-Nov-13 23:31N 50°58' E 001°52'0 0.0
2017-Nov-13 23:00N 50°58' E 001°52'0 0.0
2017-Nov-13 22:30N 50°58' E 001°52'0 0.0
2017-Nov-13 22:00N 50°58' E 001°52'  
Track history (hours):
 
Tides and Currents Weather Stations Pressure Air Temp Water Temp Dewpoint Dewpoint Depression Visibility Wind Speed Wind Dir Waves Ship Positions

European Seaway

Operator: P & O Ferries

Last reported at 2017-Nov-23 19:01 UTC. Time now 2017-Nov-23 22:30 UTC.
Position N 51°06' E 001°23'.

Length 179 m; draft 6.1 m.

Type: Passenger vessel. MMSI: 232001040.

Date/timePositionNaut miles runAvg speedWind from/ knotsBaromVisibWave heightAir tempDewpointWater temp
2017-Nov-23 19:01N 51°06' E 001°23'3 5.1
2017-Nov-23 18:30N 51°07' E 001°20'0 0.0
2017-Nov-23 18:00N 51°07' E 001°20'5 9.5
2017-Nov-23 17:30N 51°06' E 001°27'816.1
2017-Nov-23 17:01N 51°02' E 001°38'715.0
2017-Nov-23 16:30N 50°58' E 001°49'2 3.1
2017-Nov-23 16:00N 50°58' E 001°51'0 0.0
2017-Nov-23 15:30N 50°58' E 001°51'4 8.8
2017-Nov-23 15:01N 50°58' E 001°44'1019.2
2017-Nov-23 14:30N 51°02' E 001°31'816.5
2017-Nov-23 14:00N 51°07' E 001°20'0 0.0
2017-Nov-23 13:30N 51°07' E 001°20'0 0.0
2017-Nov-23 13:00N 51°07' E 001°20'3 5.3
2017-Nov-23 12:30N 51°07' E 001°24'714.0
2017-Nov-23 12:01N 51°03' E 001°34'815.5
2017-Nov-23 11:30N 50°59' E 001°44'5 9.3
2017-Nov-23 11:00N 50°58' E 001°51'0 0.0
2017-Nov-23 10:30N 50°58' E 001°51'0 0.5
2017-Nov-23 10:00N 50°58' E 001°51'0 0.6
2017-Nov-23 09:30N 50°58' E 001°52'0 0.0
2017-Nov-23 09:00N 50°58' E 001°52'0 0.0
2017-Nov-23 08:30N 50°58' E 001°52'0 0.0
2017-Nov-23 08:00N 50°58' E 001°52'0 0.0
2017-Nov-23 07:30N 50°58' E 001°52'0 0.0
2017-Nov-23 07:00N 50°58' E 001°52'0 0.0
2017-Nov-23 06:29N 50°58' E 001°52'0 0.0
2017-Nov-23 06:00N 50°58' E 001°52'0 0.0
2017-Nov-23 05:31N 50°58' E 001°52'0 0.0
2017-Nov-23 05:00N 50°58' E 001°52'0 0.0
2017-Nov-23 04:30N 50°58' E 001°52'0 0.0
2017-Nov-23 04:00N 50°58' E 001°52'0 0.0
2017-Nov-23 03:30N 50°58' E 001°52'0 0.0
2017-Nov-23 03:01N 50°58' E 001°52'0 0.0
2017-Nov-23 02:30N 50°58' E 001°52'0 0.0
2017-Nov-23 02:01N 50°58' E 001°52'0 0.0
2017-Nov-23 01:31N 50°58' E 001°52'0 0.0
2017-Nov-23 01:01N 50°58' E 001°52'0 0.0
2017-Nov-23 00:31N 50°58' E 001°52'0 0.0
2017-Nov-23 00:00N 50°58' E 001°52'0 0.0
2017-Nov-22 23:31N 50°58' E 001°52'0 0.0
2017-Nov-22 23:00N 50°58' E 001°52'0 0.0
2017-Nov-22 22:30N 50°58' E 001°52'0 0.0
2017-Nov-22 22:01N 50°58' E 001°52'0 0.0
2017-Nov-22 21:31N 50°58' E 001°52'0 0.0
2017-Nov-22 21:00N 50°58' E 001°52'0 0.0
2017-Nov-22 20:31N 50°58' E 001°52'0 0.4
2017-Nov-22 20:00N 50°58' E 001°52'1 1.5
2017-Nov-22 19:31N 50°58' E 001°51'  
2017-Nov-20 00:30N 50°58' E 001°51'0 0.0
2017-Nov-20 00:00N 50°58' E 001°51'0 0.0
2017-Nov-19 23:30N 50°58' E 001°51'0 0.0
2017-Nov-19 23:00N 50°58' E 001°51'0 0.0
2017-Nov-19 22:30N 50°58' E 001°51'0 0.0
2017-Nov-19 22:00N 50°58' E 001°51'0 0.0
2017-Nov-19 21:30N 50°58' E 001°51'0 0.0
2017-Nov-19 21:00N 50°58' E 001°51'0 0.0
2017-Nov-19 20:30N 50°58' E 001°51'0 0.0
2017-Nov-19 20:00N 50°58' E 001°51'0 0.2
2017-Nov-19 19:30N 50°58' E 001°51'713.5
2017-Nov-19 19:01N 50°58' E 001°40'917.3
2017-Nov-19 18:31N 51°03' E 001°29'713.1
2017-Nov-19 17:59N 51°07' E 001°20'0 0.0
2017-Nov-19 17:15N 51°07' E 001°20'1 5.5
2017-Nov-19 17:00N 51°07' E 001°22'816.1
2017-Nov-19 16:30N 51°03' E 001°33'917.7
2017-Nov-19 16:00N 50°58' E 001°45'4 8.5
2017-Nov-19 15:31N 50°58' E 001°52'0 0.0
2017-Nov-19 15:01N 50°58' E 001°52'0 0.4
2017-Nov-19 14:30N 50°58' E 001°52'0 0.0
2017-Nov-19 12:46N 50°58' E 001°52'0 0.0
2017-Nov-19 12:30N 50°58' E 001°52'0 0.0
2017-Nov-19 12:00N 50°58' E 001°52'0 0.0
2017-Nov-19 11:30N 50°58' E 001°52'0 0.0
2017-Nov-19 11:00N 50°58' E 001°52'0 0.0
2017-Nov-19 10:31N 50°58' E 001°52'0 0.0
2017-Nov-19 10:00N 50°58' E 001°52'0 0.0
2017-Nov-19 09:30N 50°58' E 001°52'0 0.0
2017-Nov-19 09:00N 50°58' E 001°52'0 0.0
2017-Nov-19 08:30N 50°58' E 001°52'0 0.0
2017-Nov-19 08:00N 50°58' E 001°52'0 0.0
2017-Nov-19 07:30N 50°58' E 001°52'0 0.0
2017-Nov-19 07:00N 50°58' E 001°52'0 0.0
2017-Nov-19 06:31N 50°58' E 001°52'0 0.0
2017-Nov-19 06:00N 50°58' E 001°52'0 0.0
2017-Nov-19 05:30N 50°58' E 001°52'0 0.0
2017-Nov-19 05:00N 50°58' E 001°52'0 0.0
2017-Nov-19 04:31N 50°58' E 001°52'0 0.0
2017-Nov-19 04:00N 50°58' E 001°52'0 0.0
2017-Nov-19 03:31N 50°58' E 001°52'0 0.0
2017-Nov-19 03:00N 50°58' E 001°52'0 0.0
2017-Nov-19 00:34N 50°58' E 001°52'0 0.0
2017-Nov-19 00:30N 50°58' E 001°52'0 0.0
2017-Nov-19 00:00N 50°58' E 001°52'0 0.0
2017-Nov-18 23:30N 50°58' E 001°52'0 0.0
2017-Nov-18 23:00N 50°58' E 001°52'0 0.0
2017-Nov-18 22:30N 50°58' E 001°52'0 0.0
2017-Nov-18 22:00N 50°58' E 001°52'0 0.0
2017-Nov-18 21:30N 50°58' E 001°52'0 0.0
2017-Nov-18 21:00N 50°58' E 001°52'0 0.0
2017-Nov-18 20:30N 50°58' E 001°52'0 0.0
2017-Nov-18 20:00N 50°58' E 001°52'0 0.0
2017-Nov-18 19:30N 50°58' E 001°52'3 5.6
2017-Nov-18 19:01N 50°58' E 001°47'815.1
2017-Nov-18 18:30N 50°60' E 001°36'817.0
2017-Nov-18 18:01N 51°05' E 001°25'4 5.0
2017-Nov-18 17:12N 51°07' E 001°20'1 4.1
2017-Nov-18 17:00N 51°07' E 001°21'917.4
2017-Nov-18 16:30N 51°04' E 001°34'917.0
2017-Nov-18 16:00N 50°58' E 001°44'4 8.2
2017-Nov-18 15:30N 50°58' E 001°51'0 0.0
2017-Nov-18 15:00N 50°58' E 001°51'0 0.0
2017-Nov-18 14:30N 50°58' E 001°51'713.9
2017-Nov-18 14:00N 50°59' E 001°40'918.3
2017-Nov-18 13:30N 51°04' E 001°28'6 4.5
2017-Nov-18 12:12N 51°07' E 001°20'0 0.8
2017-Nov-18 12:00N 51°07' E 001°20'714.5
2017-Nov-18 11:30N 51°05' E 001°31'816.9
2017-Nov-18 11:00N 50°60' E 001°42'612.6
2017-Nov-18 10:30N 50°58' E 001°52'0 0.2
2017-Nov-18 10:00N 50°58' E 001°52'0 0.0
2017-Nov-18 09:31N 50°58' E 001°52'0 0.0
2017-Nov-18 09:00N 50°58' E 001°52'0 0.0
2017-Nov-18 08:30N 50°58' E 001°52'0 0.0
2017-Nov-18 08:00N 50°58' E 001°52'0 0.0
2017-Nov-18 07:30N 50°58' E 001°52'0 0.0
2017-Nov-18 07:00N 50°58' E 001°52'0 0.0
2017-Nov-18 06:30N 50°58' E 001°52'0 0.0
2017-Nov-18 06:00N 50°58' E 001°52'0 0.0
2017-Nov-18 05:30N 50°58' E 001°52'0 0.0
2017-Nov-18 05:00N 50°58' E 001°52'0 0.0
2017-Nov-18 04:30N 50°58' E 001°52'0 0.0
2017-Nov-18 04:00N 50°58' E 001°52'0 0.0
2017-Nov-18 03:30N 50°58' E 001°52'0 0.0
2017-Nov-18 03:00N 50°58' E 001°52'0 0.0
2017-Nov-18 02:30N 50°58' E 001°52'0 0.0
2017-Nov-18 02:00N 50°58' E 001°52'0 0.0
2017-Nov-18 01:30N 50°58' E 001°52'0 0.0
2017-Nov-18 01:00N 50°58' E 001°52'0 0.0
2017-Nov-18 00:30N 50°58' E 001°52'0 0.0
2017-Nov-18 00:00N 50°58' E 001°52'0 0.0
2017-Nov-17 23:30N 50°58' E 001°52'0 0.0
2017-Nov-17 23:00N 50°58' E 001°52'0 0.0
2017-Nov-17 22:30N 50°58' E 001°52'0 0.0
2017-Nov-17 22:00N 50°58' E 001°52'0 0.0
2017-Nov-17 21:30N 50°58' E 001°52'0 0.0
2017-Nov-17 21:00N 50°58' E 001°52'0 0.0
2017-Nov-17 20:30N 50°58' E 001°52'0 0.0
2017-Nov-17 20:00N 50°58' E 001°52'5 9.7
2017-Nov-17 19:30N 50°58' E 001°44'816.8
2017-Nov-17 19:00N 51°01' E 001°32'917.8
2017-Nov-17 18:30N 51°07' E 001°21'1 1.1
2017-Nov-17 17:38N 51°07' E 001°20'0 0.0
2017-Nov-17 17:16N 51°07' E 001°20'1 4.9
2017-Nov-17 17:00N 51°07' E 001°22'714.3
2017-Nov-17 16:31N 51°04' E 001°32'816.1
2017-Nov-17 16:01N 50°59' E 001°43'510.7
2017-Nov-17 15:30N 50°58' E 001°51'0 0.0
2017-Nov-17 15:00N 50°58' E 001°51'0 0.9
2017-Nov-17 14:30N 50°58' E 001°50'713.9
2017-Nov-17 14:00N 50°59' E 001°39'816.3
2017-Nov-17 13:30N 51°03' E 001°29'7 8.4
2017-Nov-17 12:42N 51°07' E 001°20'0 0.0
2017-Nov-17 12:27N 51°07' E 001°20'0 0.3
2017-Nov-17 12:00N 51°07' E 001°20'714.8
2017-Nov-17 11:30N 51°05' E 001°31'816.8
2017-Nov-17 11:00N 50°60' E 001°41'713.2
2017-Nov-17 10:30N 50°58' E 001°52'0 0.2
2017-Nov-17 10:00N 50°58' E 001°52'0 0.0
2017-Nov-17 09:30N 50°58' E 001°52'0 0.4
2017-Nov-17 09:00N 50°58' E 001°52'0 0.0
2017-Nov-17 08:31N 50°58' E 001°52'0 0.0
2017-Nov-17 08:00N 50°58' E 001°52'0 0.0
2017-Nov-17 07:30N 50°58' E 001°52'0 0.0
2017-Nov-17 07:00N 50°58' E 001°52'0 0.0
2017-Nov-17 06:30N 50°58' E 001°52'0 0.0
2017-Nov-17 06:00N 50°58' E 001°52'0 0.0
2017-Nov-17 05:30N 50°58' E 001°52'0 0.0
2017-Nov-17 05:00N 50°58' E 001°52'0 0.0
2017-Nov-17 04:30N 50°58' E 001°52'0 0.0
2017-Nov-17 04:00N 50°58' E 001°52'0 0.0
2017-Nov-17 03:30N 50°58' E 001°52'0 0.0
2017-Nov-17 03:00N 50°58' E 001°52'0 0.0
2017-Nov-17 02:30N 50°58' E 001°52'0 0.0
2017-Nov-17 02:00N 50°58' E 001°52'0 0.0
2017-Nov-17 01:30N 50°58' E 001°52'0 0.0
2017-Nov-17 01:00N 50°58' E 001°52'0 0.0
2017-Nov-17 00:30N 50°58' E 001°52'0 0.0
2017-Nov-17 00:00N 50°58' E 001°52'0 0.0
2017-Nov-16 23:30N 50°58' E 001°52'0 0.0
2017-Nov-16 23:00N 50°58' E 001°52'0 0.0
2017-Nov-16 22:30N 50°58' E 001°52'0 0.0
2017-Nov-16 22:00N 50°58' E 001°52'0 0.0
2017-Nov-16 21:30N 50°58' E 001°52'0 0.0
2017-Nov-16 21:00N 50°58' E 001°52'0 0.4
2017-Nov-16 20:30N 50°58' E 001°52'0 0.0
2017-Nov-16 20:00N 50°58' E 001°52'4 7.8
2017-Nov-16 19:31N 50°58' E 001°46'714.9
2017-Nov-16 19:01N 50°59' E 001°34'815.9
2017-Nov-16 18:31N 51°05' E 001°25'4 3.5
2017-Nov-16 17:24N 51°07' E 001°20'0 0.0
2017-Nov-16 16:56N 51°07' E 001°20'512.7
2017-Nov-16 16:30N 51°06' E 001°28'917.7
2017-Nov-16 16:01N 51°01' E 001°40'714.6
2017-Nov-16 15:31N 50°58' E 001°51'0 0.3
2017-Nov-16 15:00N 50°58' E 001°51'0 0.0
2017-Nov-16 14:31N 50°58' E 001°51'510.3
2017-Nov-16 14:00N 50°58' E 001°43'918.5
2017-Nov-16 13:31N 51°03' E 001°30'814.7
2017-Nov-16 12:59N 51°07' E 001°20'0 0.1
2017-Nov-16 12:28N 51°07' E 001°20'0 0.0
2017-Nov-16 12:00N 51°07' E 001°20'611.9
2017-Nov-16 11:30N 51°06' E 001°29'917.2
2017-Nov-16 11:00N 51°01' E 001°40'714.4
2017-Nov-16 10:30N 50°58' E 001°51'0 0.8
2017-Nov-16 10:00N 50°58' E 001°52'0 0.0
2017-Nov-16 09:30N 50°58' E 001°52'0 0.0
2017-Nov-16 09:00N 50°58' E 001°52'0 0.0
2017-Nov-16 08:31N 50°58' E 001°52'0 0.0
2017-Nov-16 08:01N 50°58' E 001°52'0 0.0
2017-Nov-16 07:30N 50°58' E 001°52'0 0.0
2017-Nov-16 07:01N 50°58' E 001°52'0 0.0
2017-Nov-16 06:31N 50°58' E 001°52'0 0.0
2017-Nov-16 06:01N 50°58' E 001°52'0 0.0
2017-Nov-16 05:31N 50°58' E 001°52'0 0.0
2017-Nov-16 05:00N 50°58' E 001°52'0 0.0
2017-Nov-16 04:30N 50°58' E 001°52'0 0.0
2017-Nov-16 04:00N 50°58' E 001°52'0 0.0
2017-Nov-16 03:31N 50°58' E 001°52'0 0.0
2017-Nov-16 03:00N 50°58' E 001°52'0 0.0
2017-Nov-16 02:31N 50°58' E 001°52'0 0.0
2017-Nov-16 02:00N 50°58' E 001°52'0 0.0
2017-Nov-16 01:30N 50°58' E 001°52'0 0.0
2017-Nov-16 01:00N 50°58' E 001°52'0 0.0
2017-Nov-16 00:30N 50°58' E 001°52'0 0.0
2017-Nov-16 00:00N 50°58' E 001°52'0 0.0
2017-Nov-15 23:30N 50°58' E 001°52'0 0.0
2017-Nov-15 23:00N 50°58' E 001°52'0 0.0
2017-Nov-15 22:31N 50°58' E 001°52'0 0.0
2017-Nov-15 22:00N 50°58' E 001°52'0 0.0
2017-Nov-15 21:30N 50°58' E 001°52'0 0.0
2017-Nov-15 21:00N 50°58' E 001°52'0 0.0
2017-Nov-15 20:30N 50°58' E 001°52'0 0.0
2017-Nov-15 20:00N 50°58' E 001°52'0 0.2
2017-Nov-15 19:30N 50°58' E 001°52'714.5
2017-Nov-15 19:00N 50°58' E 001°40'917.4
2017-Nov-15 18:30N 51°02' E 001°28'7 4.8
2017-Nov-15 17:02N 51°07' E 001°20'0 0.1
2017-Nov-15 16:50N 51°07' E 001°20'2 7.0
2017-Nov-15 16:30N 51°07' E 001°24'917.7
2017-Nov-15 16:00N 51°02' E 001°35'918.0
2017-Nov-15 15:30N 50°58' E 001°48'2 3.3
2017-Nov-15 15:00N 50°58' E 001°51'0 0.0
2017-Nov-15 14:30N 50°58' E 001°51'510.1
2017-Nov-15 14:00N 50°58' E 001°43'918.1
2017-Nov-15 13:30N 51°03' E 001°31'8 4.5
2017-Nov-15 11:44N 51°07' E 001°20'312.8
2017-Nov-15 11:31N 51°07' E 001°25'917.1
2017-Nov-15 11:01N 51°02' E 001°36'816.0
2017-Nov-15 10:30N 50°58' E 001°47'3 6.0
2017-Nov-15 10:00N 50°58' E 001°52'0 0.0
2017-Nov-15 09:30N 50°58' E 001°52'0 0.0
2017-Nov-15 09:00N 50°58' E 001°52'0 0.0
2017-Nov-15 08:30N 50°58' E 001°52'0 0.0
2017-Nov-15 08:00N 50°58' E 001°52'0 0.0
2017-Nov-15 07:30N 50°58' E 001°52'0 0.0
2017-Nov-15 07:00N 50°58' E 001°52'0 0.0
2017-Nov-15 06:30N 50°58' E 001°52'0 0.0
2017-Nov-15 06:00N 50°58' E 001°52'0 0.0
2017-Nov-15 05:30N 50°58' E 001°52'0 0.0
2017-Nov-15 05:00N 50°58' E 001°52'0 0.0
2017-Nov-15 04:30N 50°58' E 001°52'0 0.0
2017-Nov-15 04:00N 50°58' E 001°52'0 0.0
2017-Nov-15 03:30N 50°58' E 001°52'0 0.0
2017-Nov-15 03:00N 50°58' E 001°52'0 0.0
2017-Nov-15 02:30N 50°58' E 001°52'0 0.0
2017-Nov-15 02:00N 50°58' E 001°52'0 0.0
2017-Nov-15 01:30N 50°58' E 001°52'0 0.0
2017-Nov-15 01:00N 50°58' E 001°52'0 0.0
2017-Nov-15 00:30N 50°58' E 001°52'0 0.0
2017-Nov-15 00:00N 50°58' E 001°52'0 0.0
2017-Nov-14 23:31N 50°58' E 001°52'0 0.0
2017-Nov-14 23:00N 50°58' E 001°52'0 0.0
2017-Nov-14 22:31N 50°58' E 001°52'0 0.0
2017-Nov-14 22:00N 50°58' E 001°52'0 0.0
2017-Nov-14 21:30N 50°58' E 001°52'0 0.0
2017-Nov-14 21:00N 50°58' E 001°52'0 0.0
2017-Nov-14 20:30N 50°58' E 001°52'0 0.0
2017-Nov-14 20:00N 50°58' E 001°52'4 7.2
2017-Nov-14 19:30N 50°58' E 001°46'918.2
2017-Nov-14 19:00N 51°02' E 001°33'917.8
2017-Nov-14 18:30N 51°07' E 001°21'1 0.7
2017-Nov-14 17:09N 51°07' E 001°20'0 2.7
2017-Nov-14 17:00N 51°07' E 001°21'612.1
2017-Nov-14 16:31N 51°05' E 001°30'713.7
2017-Nov-14 16:00N 51°01' E 001°38'815.2
2017-Nov-14 15:31N 50°58' E 001°49'1 2.1
2017-Nov-14 15:00N 50°58' E 001°51'0 0.0
2017-Nov-14 14:31N 50°58' E 001°51'5 9.7
2017-Nov-14 14:00N 50°58' E 001°43'917.7
2017-Nov-14 13:30N 51°02' E 001°31'816.8
2017-Nov-14 13:00N 51°07' E 001°20'0 0.9
2017-Nov-14 12:28N 51°07' E 001°20'0 0.0
2017-Nov-14 11:51N 51°07' E 001°20'3 9.7
2017-Nov-14 11:30N 51°07' E 001°26'816.7
2017-Nov-14 11:00N 51°03' E 001°37'815.7
2017-Nov-14 10:30N 50°58' E 001°47'3 5.6
2017-Nov-14 10:00N 50°58' E 001°52'0 0.0
2017-Nov-14 09:30N 50°58' E 001°52'0 0.3
2017-Nov-14 09:00N 50°58' E 001°52'0 0.0
2017-Nov-14 08:30N 50°58' E 001°52'0 0.0
2017-Nov-14 08:00N 50°58' E 001°52'0 0.0
2017-Nov-14 07:30N 50°58' E 001°52'0 0.0
2017-Nov-14 07:00N 50°58' E 001°52'0 0.0
2017-Nov-14 06:30N 50°58' E 001°52'0 0.0
2017-Nov-14 06:00N 50°58' E 001°52'0 0.0
2017-Nov-14 05:30N 50°58' E 001°52'0 0.0
2017-Nov-14 05:00N 50°58' E 001°52'0 0.0
2017-Nov-14 04:30N 50°58' E 001°52'0 0.0
2017-Nov-14 04:00N 50°58' E 001°52'0 0.0
2017-Nov-14 03:30N 50°58' E 001°52'0 0.0
2017-Nov-14 03:00N 50°58' E 001°52'0 0.0
2017-Nov-14 02:30N 50°58' E 001°52'0 0.0
2017-Nov-14 02:00N 50°58' E 001°52'0 0.0
2017-Nov-14 01:30N 50°58' E 001°52'0 0.0
2017-Nov-14 01:00N 50°58' E 001°52'0 0.0
2017-Nov-14 00:30N 50°58' E 001°52'0 0.0
2017-Nov-14 00:00N 50°58' E 001°52'0 0.0
2017-Nov-13 23:31N 50°58' E 001°52'0 0.0
2017-Nov-13 23:00N 50°58' E 001°52'0 0.0
2017-Nov-13 22:30N 50°58' E 001°52'0 0.0
2017-Nov-13 22:00N 50°58' E 001°52'  

Dump ship's entire track history